Villas del Faro, Puerto Rico
Current Conditions -  °F | °C
As of 8:53 PM on Friday 19 Dec 2014 (Local Time) from TJNR Reporting Station
Scattered Clouds Scattered Clouds  
Wind Chill: 78°   Ceiling: Unl
Heat Index: 80°   Visibility: 10mi
Dew Point: 69°   Wind: 7mph
Humidity: 74%   Direction: 60°ENE
Pressure: 30.03"   Gusts: NA
Location:  18.0098°N, 65.8982°W
Report Text: TJNR 200053Z AUTO 06006KT 10SM FEW028 SCT070 26/21 A3003 RMK AO2 SLP168 T02560206
Loading
Personal Weather Stations






























Interactive Weather Map New forecast layout! Learn more

10-Day Weather Forecast

Advertisements
Track Severe Weather on mobile